Rockwell Springs, New York
Current Conditions -  °F | °C
As of 5:26 PM on Monday 26 Jan 2015 (Local Time) from KSYR Reporting Station
Light Snow Light Snow  
Wind Chill:   Ceiling: 2700
Heat Index: 14°   Visibility: 2mi
Dew Point: 11°   Wind: 12mph
Humidity: 88%   Direction: 70°ENE
Pressure: 29.96"   Gusts: NA
Location:  42.9377°N, 76.1727°W
Report Text: KSYR 262226Z 07010KT 2SM -SN BR FEW020 BKN027 OVC041 M10/M12 A2996 RMK AO2 P0001 T11001117 $
Loading
Personal Weather Stations






























Interactive Weather Map New forecast layout! Learn more

10-Day Weather Forecast

Advertisements
Track Severe Weather on mobile